Radway, Canada
Current Conditions -  °F | °C
As of 12:00 PM on Tuesday 21 Oct 2014 (Local Time) from CYED Reporting Station
Broken Clouds Broken Clouds  
Wind Chill: 54°   Ceiling: 15000
Heat Index: 54°   Visibility: 15mi
Dew Point: 41°   Wind: 6mph
Humidity: 62%   Direction: 290°WNW
Pressure: 29.64"   Gusts: NA
Location:  54.06°N, 112.95°W
Report Text: CYED 211800Z 29005KT 15SM FEW120 BKN150 BKN250 12/05 A2964 RMKAC2AC3CI2 DA2840FT SLP051
Loading
Personal Weather Stations






























Interactive Weather Map
Tropical Storm Tracking
New forecast layout! Learn more

10-Day Weather Forecast

Advertisements
Track Severe Weather on mobile